Time;durP1;ratioP1;P1;durP2;ratioP2;P2;SDS_P1;SDS_P2;PMS_P1;PMS_P2;Temp;Humidity;BMP_temperature;BMP_pressure;BME280_temperature;BME280_humidity;BME280_pressure;Samples;Min_cycle;Max_cycle;Signal;HPM_P1;HPM_P2
2021/12/08 00:00:18;;;;;;;1.02;0.80;;;;;;;;;;5009813;28;20174;-74
2021/12/08 00:02:44;;;;;;;1.05;0.95;;;;;;;;;;5008803;28;20101;-73
2021/12/08 00:05:11;;;;;;;0.98;0.90;;;;;;;;;;5011391;28;20543;-74
2021/12/08 00:07:37;;;;;;;1.10;1.00;;;;;;;;;;5012367;28;20038;-75
2021/12/08 00:10:18;;;;;;;2.10;1.10;;;;;;;;;;5012719;28;20038;-74
2021/12/08 00:13:04;;;;;;;1.90;0.90;;;;;;;;;;4993193;28;20399;-73
2021/12/08 00:15:39;;;;;;;2.20;0.90;;;;;;;;;;5000116;28;20483;-74
2021/12/08 00:18:06;;;;;;;2.88;0.90;;;;;;;;;;5012275;28;20175;-74
2021/12/08 00:20:33;;;;;;;1.15;0.88;;;;;;;;;;5010984;28;20025;-73
2021/12/08 00:23:03;;;;;;;1.33;0.85;;;;;;;;;;5010662;28;20411;-72
2021/12/08 00:25:29;;;;;;;1.60;1.08;;;;;;;;;;5011414;28;20643;-74
2021/12/08 00:27:55;;;;;;;1.00;0.90;;;;;;;;;;5011321;28;20030;-74
2021/12/08 00:30:21;;;;;;;2.05;1.00;;;;;;;;;;5009368;28;20025;-72
2021/12/08 00:32:47;;;;;;;1.38;1.05;;;;;;;;;;5011316;28;20033;-72
2021/12/08 00:35:13;;;;;;;2.50;1.00;;;;;;;;;;5011048;28;20048;-72
2021/12/08 00:37:40;;;;;;;1.73;1.10;;;;;;;;;;5010991;28;20025;-72
2021/12/08 00:40:07;;;;;;;1.63;1.13;;;;;;;;;;5011709;28;20088;-73
2021/12/08 00:42:32;;;;;;;1.33;1.20;;;;;;;;;;5009631;28;20463;-74
2021/12/08 00:44:59;;;;;;;1.98;1.13;;;;;;;;;;4999947;28;20057;-74
2021/12/08 00:47:25;;;;;;;3.17;1.35;;;;;;;;;;4992649;28;20436;-74
2021/12/08 00:49:51;;;;;;;2.83;1.20;;;;;;;;;;5004952;28;20037;-73
2021/12/08 00:52:16;;;;;;;1.65;1.10;;;;;;;;;;5007139;28;20030;-74
2021/12/08 00:54:42;;;;;;;3.42;1.30;;;;;;;;;;5010479;28;20017;-73
2021/12/08 00:57:09;;;;;;;2.05;1.13;;;;;;;;;;5009342;28;20086;-72
2021/12/08 00:59:34;;;;;;;2.03;1.40;;;;;;;;;;5011552;28;20109;-74
2021/12/08 01:02:02;;;;;;;2.75;1.42;;;;;;;;;;5009232;28;20121;-73
2021/12/08 01:04:32;;;;;;;1.60;1.13;;;;;;;;;;5009367;28;20030;-73
2021/12/08 01:06:58;;;;;;;2.58;1.40;;;;;;;;;;5011783;28;20479;-75
2021/12/08 01:09:24;;;;;;;1.70;1.33;;;;;;;;;;5010569;28;20088;-74
2021/12/08 01:11:49;;;;;;;3.22;1.40;;;;;;;;;;5010084;28;20046;-75
2021/12/08 01:14:15;;;;;;;2.35;1.25;;;;;;;;;;5011135;28;20065;-75
2021/12/08 01:16:41;;;;;;;1.60;1.17;;;;;;;;;;5010723;28;20036;-75
2021/12/08 01:19:06;;;;;;;6.22;1.50;;;;;;;;;;5010575;28;20108;-75
2021/12/08 01:21:32;;;;;;;1.85;1.10;;;;;;;;;;5011646;28;20113;-75
2021/12/08 01:23:58;;;;;;;3.35;1.30;;;;;;;;;;5009104;28;20025;-75
2021/12/08 01:26:25;;;;;;;1.92;1.23;;;;;;;;;;5009701;28;20034;-75
2021/12/08 01:28:52;;;;;;;3.30;1.30;;;;;;;;;;5010925;28;20034;-74
2021/12/08 01:31:17;;;;;;;3.55;1.58;;;;;;;;;;5010328;28;20018;-75
2021/12/08 01:33:42;;;;;;;2.42;1.20;;;;;;;;;;5008844;28;20391;-75
2021/12/08 01:36:08;;;;;;;2.35;1.40;;;;;;;;;;5011389;28;20033;-75
2021/12/08 01:38:34;;;;;;;2.10;1.20;;;;;;;;;;5009591;28;20032;-75
2021/12/08 01:41:00;;;;;;;4.13;1.85;;;;;;;;;;5010053;28;20365;-75
2021/12/08 01:43:28;;;;;;;3.65;1.27;;;;;;;;;;5009425;28;20235;-75
2021/12/08 01:46:07;;;;;;;2.35;1.25;;;;;;;;;;5010342;28;20029;-75
2021/12/08 01:48:35;;;;;;;5.13;1.23;;;;;;;;;;4998184;28;20038;-75
2021/12/08 01:51:05;;;;;;;2.95;1.20;;;;;;;;;;5008685;28;20030;-75
2021/12/08 01:53:31;;;;;;;2.80;1.58;;;;;;;;;;5009101;28;20064;-74
2021/12/08 01:55:57;;;;;;;2.35;1.27;;;;;;;;;;5009998;28;20503;-75
2021/12/08 01:58:24;;;;;;;3.10;1.45;;;;;;;;;;5010444;28;20025;-75
2021/12/08 02:00:54;;;;;;;7.22;1.77;;;;;;;;;;5008470;28;20399;-75
2021/12/08 02:03:21;;;;;;;4.78;1.27;;;;;;;;;;5008863;28;20033;-74
2021/12/08 02:05:47;;;;;;;3.45;1.60;;;;;;;;;;5009907;28;20033;-75
2021/12/08 02:08:12;;;;;;;3.88;1.52;;;;;;;;;;4999057;28;20034;-73
2021/12/08 02:10:38;;;;;;;4.30;1.42;;;;;;;;;;5000338;28;20033;-74
2021/12/08 02:13:05;;;;;;;5.85;1.50;;;;;;;;;;5008686;28;20306;-75
2021/12/08 02:15:32;;;;;;;3.10;1.30;;;;;;;;;;4989648;28;20057;-74
2021/12/08 02:17:58;;;;;;;4.85;1.60;;;;;;;;;;4994147;28;20057;-74
2021/12/08 02:20:27;;;;;;;5.22;1.60;;;;;;;;;;5008296;28;20569;-74
2021/12/08 02:22:52;;;;;;;6.97;2.00;;;;;;;;;;5009440;28;20037;-75
2021/12/08 02:25:20;;;;;;;9.27;1.50;;;;;;;;;;5009077;28;20421;-74
2021/12/08 02:27:46;;;;;;;4.60;1.83;;;;;;;;;;5009042;28;20113;-74
2021/12/08 02:30:32;;;;;;;6.30;1.20;;;;;;;;;;5006400;28;20444;-75
2021/12/08 02:49:04;;;;;;;4.72;1.35;;;;;;;;;;5008295;28;20021;-75
2021/12/08 02:51:30;;;;;;;5.68;1.20;;;;;;;;;;5007642;28;20030;-74
2021/12/08 02:53:58;;;;;;;5.63;1.48;;;;;;;;;;5008190;28;20028;-73
2021/12/08 02:56:24;;;;;;;5.13;1.20;;;;;;;;;;5008084;28;20030;-75
2021/12/08 02:58:49;;;;;;;6.90;1.67;;;;;;;;;;5005706;28;20076;-74
2021/12/08 03:01:16;;;;;;;3.90;1.10;;;;;;;;;;5009142;28;20415;-73
2021/12/08 03:03:42;;;;;;;4.03;1.20;;;;;;;;;;5008570;28;20030;-75
2021/12/08 03:06:08;;;;;;;7.32;1.40;;;;;;;;;;5009071;28;20022;-71
2021/12/08 03:08:33;;;;;;;4.90;1.20;;;;;;;;;;5009172;28;20037;-73
2021/12/08 03:10:59;;;;;;;6.25;1.48;;;;;;;;;;4990697;28;20034;-73
2021/12/08 03:13:31;;;;;;;7.20;1.80;;;;;;;;;;5008476;28;20064;-73
2021/12/08 03:15:57;;;;;;;4.53;1.00;;;;;;;;;;5008660;28;20108;-73
2021/12/08 03:18:30;;;;;;;7.88;1.23;;;;;;;;;;5009187;28;20527;-72
2021/12/08 03:20:56;;;;;;;5.90;1.55;;;;;;;;;;5009190;28;20034;-72
2021/12/08 03:23:28;;;;;;;5.88;1.48;;;;;;;;;;5008546;28;20084;-72
2021/12/08 03:25:56;;;;;;;4.93;1.23;;;;;;;;;;5008647;28;20112;-74
2021/12/08 03:28:26;;;;;;;5.82;2.30;;;;;;;;;;5009418;28;20072;-72
2021/12/08 03:31:05;;;;;;;3.95;1.00;;;;;;;;;;5003995;28;20054;-72
2021/12/08 03:33:30;;;;;;;5.78;1.98;;;;;;;;;;5008890;28;20030;-73
2021/12/08 03:35:56;;;;;;;3.55;1.17;;;;;;;;;;5007585;28;20041;-72
2021/12/08 03:38:23;;;;;;;6.68;1.27;;;;;;;;;;5009670;28;20375;-73
2021/12/08 03:40:49;;;;;;;5.10;1.27;;;;;;;;;;5007556;28;20030;-74
2021/12/08 03:43:15;;;;;;;4.65;1.02;;;;;;;;;;5009227;28;20021;-73
2021/12/08 03:45:45;;;;;;;6.30;1.08;;;;;;;;;;5008690;28;20025;-72
2021/12/08 03:48:14;;;;;;;4.50;0.90;;;;;;;;;;5009284;28;20419;-72
2021/12/08 03:50:42;;;;;;;3.70;1.10;;;;;;;;;;5007017;28;20049;-72
2021/12/08 03:53:12;;;;;;;5.68;1.33;;;;;;;;;;5008131;28;20064;-72
2021/12/08 03:55:38;;;;;;;4.68;1.15;;;;;;;;;;5009263;28;20165;-72
2021/12/08 03:58:04;;;;;;;5.50;1.20;;;;;;;;;;5009210;28;20103;-73
2021/12/08 04:00:29;;;;;;;6.18;1.58;;;;;;;;;;5005081;28;20179;-73
2021/12/08 04:03:02;;;;;;;3.38;1.30;;;;;;;;;;5006060;28;20472;-73
2021/12/08 04:05:44;;;;;;;5.43;2.05;;;;;;;;;;5008635;28;20380;-72
2021/12/08 04:08:17;;;;;;;5.80;1.23;;;;;;;;;;5009056;28;20172;-73
2021/12/08 04:10:45;;;;;;;9.80;1.50;;;;;;;;;;5006466;28;20277;-74
2021/12/08 04:13:11;;;;;;;6.05;1.48;;;;;;;;;;5011470;28;20033;-74
2021/12/08 04:15:36;;;;;;;5.10;1.60;;;;;;;;;;5011623;28;20037;-73
2021/12/08 04:18:02;;;;;;;3.95;0.95;;;;;;;;;;5012232;28;20041;-72
2021/12/08 04:20:32;;;;;;;1.92;0.73;;;;;;;;;;5007015;28;20472;-73
2021/12/08 04:22:59;;;;;;;1.27;0.70;;;;;;;;;;5011535;28;20052;-72
2021/12/08 04:25:31;;;;;;;4.22;1.08;;;;;;;;;;5009607;28;20034;-73
2021/12/08 04:27:58;;;;;;;4.03;1.63;;;;;;;;;;5003396;28;20030;-73
2021/12/08 04:30:58;;;;;;;4.82;1.08;;;;;;;;;;5007981;28;20164;-72
2021/12/08 04:33:24;;;;;;;3.78;0.82;;;;;;;;;;4998489;28;20057;-72
2021/12/08 04:35:52;;;;;;;3.13;0.88;;;;;;;;;;5011501;28;20113;-70
2021/12/08 04:38:26;;;;;;;5.78;1.20;;;;;;;;;;5011373;28;20030;-73
2021/12/08 04:41:04;;;;;;;4.93;1.88;;;;;;;;;;5011519;28;20369;-73
2021/12/08 04:47:22;;;;;;;6.32;3.97;;;;;;;;;;5008415;28;20080;-73
2021/12/08 04:50:19;;;;;;;2.75;1.10;;;;;;;;;;5006191;28;20080;-74
2021/12/08 04:53:00;;;;;;;6.45;1.20;;;;;;;;;;5007357;28;20512;-72
2021/12/08 05:06:39;;;;;;;5.70;1.15;;;;;;;;;;5010701;28;20022;-72
2021/12/08 05:09:14;;;;;;;6.78;1.10;;;;;;;;;;5005936;28;20437;-74
2021/12/08 05:11:44;;;;;;;3.00;0.80;;;;;;;;;;5004069;28;20498;-73
2021/12/08 05:14:22;;;;;;;3.20;1.08;;;;;;;;;;5009810;28;20125;-72
2021/12/08 05:16:51;;;;;;;6.32;1.20;;;;;;;;;;5010323;28;20030;-72
2021/12/08 05:19:19;;;;;;;3.70;1.00;;;;;;;;;;5011267;28;20029;-74
2021/12/08 05:21:55;;;;;;;5.82;1.13;;;;;;;;;;5010893;28;20033;-72
2021/12/08 05:24:32;;;;;;;4.88;1.13;;;;;;;;;;5008920;28;20022;-73
2021/12/08 05:27:33;;;;;;;3.45;1.35;;;;;;;;;;5010983;28;20049;-73
2021/12/08 05:30:09;;;;;;;3.17;1.20;;;;;;;;;;4999825;28;20092;-76
2021/12/08 05:32:35;;;;;;;6.00;1.45;;;;;;;;;;4999648;28;20038;-74
2021/12/08 05:35:01;;;;;;;6.18;1.48;;;;;;;;;;5010083;28;20030;-72
2021/12/08 05:37:28;;;;;;;4.70;1.50;;;;;;;;;;5010932;28;20034;-72
2021/12/08 05:39:54;;;;;;;5.60;1.88;;;;;;;;;;5010245;28;20101;-72
2021/12/08 05:42:24;;;;;;;5.30;1.40;;;;;;;;;;5010524;28;20064;-73
2021/12/08 05:44:51;;;;;;;4.68;1.27;;;;;;;;;;5010736;28;20495;-73
2021/12/08 05:47:21;;;;;;;8.27;1.73;;;;;;;;;;5009942;28;20053;-73
2021/12/08 05:49:47;;;;;;;4.22;1.08;;;;;;;;;;5003032;28;20037;-73
2021/12/08 05:52:13;;;;;;;9.70;2.00;;;;;;;;;;5011356;28;20026;-73
2021/12/08 05:54:42;;;;;;;5.75;1.73;;;;;;;;;;5008525;28;20421;-73
2021/12/08 05:57:14;;;;;;;6.20;1.45;;;;;;;;;;5010480;28;20030;-73
2021/12/08 05:59:40;;;;;;;7.30;3.38;;;;;;;;;;5010526;28;20395;-73
2021/12/08 06:02:22;;;;;;;6.57;2.00;;;;;;;;;;5010324;28;20091;-73
2021/12/08 06:04:49;;;;;;;8.88;2.30;;;;;;;;;;5010782;28;20040;-73
2021/12/08 06:07:21;;;;;;;5.68;2.00;;;;;;;;;;5009321;28;20053;-73
2021/12/08 06:09:47;;;;;;;7.72;1.60;;;;;;;;;;5011289;28;20033;-74
2021/12/08 06:12:13;;;;;;;9.38;1.65;;;;;;;;;;5009689;28;20095;-73
2021/12/08 06:14:38;;;;;;;7.90;1.98;;;;;;;;;;5010977;28;20022;-73
2021/12/08 06:17:10;;;;;;;10.77;1.90;;;;;;;;;;5009494;28;20060;-73
2021/12/08 06:19:40;;;;;;;4.90;1.60;;;;;;;;;;5010332;28;20116;-73
2021/12/08 06:22:07;;;;;;;6.75;1.60;;;;;;;;;;5010247;28;20033;-72
2021/12/08 06:24:34;;;;;;;4.90;1.73;;;;;;;;;;5000241;28;20509;-73
2021/12/08 06:27:00;;;;;;;8.90;1.40;;;;;;;;;;4999228;28;20037;-73
2021/12/08 06:29:25;;;;;;;6.57;1.77;;;;;;;;;;5005322;28;20041;-73
2021/12/08 06:31:56;;;;;;;8.98;1.70;;;;;;;;;;5004557;28;20257;-74
2021/12/08 06:34:22;;;;;;;8.43;1.40;;;;;;;;;;5010834;28;20158;-74
2021/12/08 06:36:55;;;;;;;5.78;1.67;;;;;;;;;;5008749;28;20040;-73
2021/12/08 06:39:28;;;;;;;6.60;1.38;;;;;;;;;;5002060;28;20028;-73
2021/12/08 06:42:06;;;;;;;;;;;;;;;;;;5008654;28;20500;-74
2021/12/08 06:44:35;;;;;;;6.75;3.22;;;;;;;;;;5012703;28;19919;-73
2021/12/08 06:47:03;;;;;;;7.95;2.47;;;;;;;;;;5010529;28;20025;-73
2021/12/08 06:49:28;;;;;;;7.78;2.53;;;;;;;;;;5000417;28;20041;-72
2021/12/08 06:52:01;;;;;;;4.90;1.90;;;;;;;;;;5010188;28;20029;-73
2021/12/08 06:54:36;;;;;;;8.43;2.30;;;;;;;;;;5010759;28;20026;-73
2021/12/08 06:57:11;;;;;;;8.32;1.98;;;;;;;;;;5010571;28;20032;-73
2021/12/08 06:59:51;;;;;;;7.28;1.77;;;;;;;;;;5010503;28;20026;-73
2021/12/08 07:02:34;;;;;;;5.20;2.30;;;;;;;;;;5009326;28;20434;-73
2021/12/08 07:05:12;;;;;;;7.80;1.52;;;;;;;;;;5005842;28;20034;-73
2021/12/08 07:07:41;;;;;;;9.48;2.25;;;;;;;;;;5004422;28;20030;-73
2021/12/08 07:10:19;;;;;;;7.88;2.40;;;;;;;;;;5008831;28;20029;-75
2021/12/08 07:12:50;;;;;;;6.30;1.88;;;;;;;;;;5008400;28;20040;-75
2021/12/08 07:15:23;;;;;;;7.75;2.13;;;;;;;;;;5009348;28;20030;-74
2021/12/08 07:17:53;;;;;;;7.78;1.70;;;;;;;;;;5009063;28;20037;-74
2021/12/08 07:20:43;;;;;;;6.57;1.75;;;;;;;;;;5008465;28;20025;-73
2021/12/08 07:23:36;;;;;;;8.57;1.83;;;;;;;;;;5008392;28;20037;-74
2021/12/08 07:26:06;;;;;;;8.30;2.35;;;;;;;;;;5009191;28;20018;-73
2021/12/08 07:28:32;;;;;;;5.65;1.70;;;;;;;;;;5007305;28;20034;-74
2021/12/08 07:31:03;;;;;;;8.98;1.95;;;;;;;;;;4992436;28;20224;-74
2021/12/08 07:33:29;;;;;;;8.15;2.20;;;;;;;;;;5006965;28;20037;-74
2021/12/08 07:35:59;;;;;;;7.63;2.00;;;;;;;;;;5008632;28;20029;-74
2021/12/08 07:38:27;;;;;;;7.65;2.08;;;;;;;;;;5009129;28;20022;-73
2021/12/08 07:41:06;;;;;;;6.38;1.90;;;;;;;;;;5008287;28;20032;-73
2021/12/08 07:43:35;;;;;;;7.90;3.28;;;;;;;;;;5001454;28;20079;-73
2021/12/08 07:46:06;;;;;;;8.90;2.53;;;;;;;;;;5008777;28;20030;-74
2021/12/08 07:48:43;;;;;;;10.50;2.30;;;;;;;;;;5012727;28;20099;-74
2021/12/08 07:51:17;;;;;;;7.25;1.60;;;;;;;;;;5001538;28;20108;-74
2021/12/08 07:53:43;;;;;;;17.50;7.53;;;;;;;;;;5000128;28;20029;-74
2021/12/08 07:56:10;;;;;;;20.77;7.68;;;;;;;;;;5010315;28;20391;-74
2021/12/08 07:58:39;;;;;;;9.05;5.07;;;;;;;;;;5011738;28;20014;-75
2021/12/08 08:01:09;;;;;;;9.95;2.53;;;;;;;;;;5009014;28;20037;-75
2021/12/08 08:03:35;;;;;;;11.07;2.80;;;;;;;;;;5011806;28;20404;-74
2021/12/08 08:06:06;;;;;;;15.77;4.63;;;;;;;;;;4997424;28;20146;-74
2021/12/08 08:08:33;;;;;;;6.47;1.90;;;;;;;;;;4993015;28;20499;-74
2021/12/08 08:11:03;;;;;;;7.07;2.55;;;;;;;;;;4993331;28;20161;-74
2021/12/08 08:13:30;;;;;;;9.90;1.70;;;;;;;;;;4992135;28;20038;-74
2021/12/08 08:16:05;;;;;;;6.18;1.88;;;;;;;;;;4993155;28;20029;-73
2021/12/08 08:18:33;;;;;;;21.55;8.30;;;;;;;;;;4999954;28;20025;-73
2021/12/08 08:21:02;;;;;;;15.70;5.20;;;;;;;;;;5011853;28;20029;-74
2021/12/08 08:23:29;;;;;;;7.70;2.35;;;;;;;;;;5011742;28;20033;-74
2021/12/08 08:25:57;;;;;;;9.13;3.70;;;;;;;;;;5011139;28;20057;-74
2021/12/08 08:28:23;;;;;;;10.70;4.50;;;;;;;;;;5011722;28;20617;-73
2021/12/08 08:31:01;;;;;;;10.88;5.20;;;;;;;;;;5017045;28;20060;-74
2021/12/08 08:33:28;;;;;;;8.40;2.20;;;;;;;;;;5011795;28;20488;-74
2021/12/08 08:35:56;;;;;;;8.45;2.30;;;;;;;;;;5014076;28;20452;-74
2021/12/08 08:38:26;;;;;;;10.10;4.10;;;;;;;;;;5011144;28;20053;-74
2021/12/08 08:41:02;;;;;;;7.90;2.55;;;;;;;;;;5012537;28;20073;-74
2021/12/08 08:43:28;;;;;;;10.32;2.60;;;;;;;;;;5010535;28;20022;-74
2021/12/08 08:46:01;;;;;;;6.68;1.95;;;;;;;;;;5011517;28;20377;-74
2021/12/08 08:48:33;;;;;;;7.88;2.67;;;;;;;;;;5011425;28;20075;-74
2021/12/08 08:51:13;;;;;;;7.25;2.33;;;;;;;;;;5007800;28;20499;-74
2021/12/08 08:53:43;;;;;;;9.43;2.08;;;;;;;;;;4995310;28;20149;-73
2021/12/08 08:56:24;;;;;;;5.32;2.38;;;;;;;;;;5008198;28;20026;-75
2021/12/08 08:58:53;;;;;;;9.63;2.22;;;;;;;;;;5016218;28;20061;-76
2021/12/08 09:01:25;;;;;;;8.50;3.65;;;;;;;;;;5018930;28;20025;-74
2021/12/08 09:03:57;;;;;;;14.45;4.18;;;;;;;;;;5007819;28;20676;-74
2021/12/08 09:06:29;;;;;;;13.55;4.97;;;;;;;;;;5032158;28;20124;-75
2021/12/08 09:08:56;;;;;;;9.75;2.47;;;;;;;;;;5014285;28;20124;-76
2021/12/08 09:11:30;;;;;;;4.28;2.10;;;;;;;;;;5011388;28;20030;-75
2021/12/08 09:14:05;;;;;;;6.13;2.38;;;;;;;;;;5010685;28;20417;-75
2021/12/08 09:16:39;;;;;;;7.82;1.60;;;;;;;;;;5016472;28;20391;-76
2021/12/08 09:19:13;;;;;;;8.73;1.80;;;;;;;;;;5010699;28;20017;-75
2021/12/08 09:21:59;;;;;;;5.10;1.80;;;;;;;;;;5009498;28;20079;-76
2021/12/08 09:24:39;;;;;;;6.80;2.00;;;;;;;;;;5025080;28;20033;-75
2021/12/08 09:27:08;;;;;;;7.53;1.83;;;;;;;;;;5020430;28;20033;-75
2021/12/08 09:29:44;;;;;;;6.30;1.85;;;;;;;;;;5010413;28;20033;-75
2021/12/08 09:32:21;;;;;;;5.50;1.50;;;;;;;;;;5010987;28;20034;-76
2021/12/08 09:35:11;;;;;;;6.70;1.38;;;;;;;;;;5010117;28;20034;-75
2021/12/08 09:37:45;;;;;;;3.88;1.70;;;;;;;;;;4999590;28;20025;-75
2021/12/08 09:40:32;;;;;;;;;;;;;;;;;;5007082;28;20033;-75
2021/12/08 09:43:04;;;;;;;7.85;1.63;;;;;;;;;;5010301;28;19913;-75
2021/12/08 09:45:47;;;;;;;5.30;1.52;;;;;;;;;;5010832;28;20045;-75
2021/12/08 09:48:13;;;;;;;6.50;2.15;;;;;;;;;;4992186;28;20104;-76
2021/12/08 09:50:39;;;;;;;6.43;1.80;;;;;;;;;;5007450;28;20037;-75
2021/12/08 09:53:06;;;;;;;5.35;1.60;;;;;;;;;;5003506;28;20157;-75
2021/12/08 09:55:32;;;;;;;5.40;1.42;;;;;;;;;;5005388;28;20025;-75
2021/12/08 09:57:57;;;;;;;7.93;1.60;;;;;;;;;;5010030;28;20038;-75
2021/12/08 10:00:29;;;;;;;8.07;1.58;;;;;;;;;;5008774;28;20043;-76
2021/12/08 10:02:57;;;;;;;9.02;2.20;;;;;;;;;;5010157;28;20077;-75
2021/12/08 10:05:26;;;;;;;7.68;1.90;;;;;;;;;;5010462;28;20476;-76
2021/12/08 10:07:52;;;;;;;3.05;1.20;;;;;;;;;;5010281;28;20025;-74
2021/12/08 10:10:18;;;;;;;20.52;8.57;;;;;;;;;;5009133;28;20100;-76
2021/12/08 10:12:44;;;;;;;19.27;10.82;;;;;;;;;;5003897;28;20025;-75
2021/12/08 10:15:14;;;;;;;16.45;7.88;;;;;;;;;;4988859;28;20026;-76
2021/12/08 10:17:41;;;;;;;10.88;3.60;;;;;;;;;;5001955;28;20026;-76
2021/12/08 10:20:17;;;;;;;10.93;5.28;;;;;;;;;;5008017;28;20018;-76
2021/12/08 10:22:45;;;;;;;8.57;1.60;;;;;;;;;;4998194;28;20042;-76
2021/12/08 10:25:22;;;;;;;6.55;2.03;;;;;;;;;;4992730;28;20041;-76
2021/12/08 10:28:08;;;;;;;8.65;2.30;;;;;;;;;;4993735;28;20370;-76
2021/12/08 10:30:41;;;;;;;10.48;6.90;;;;;;;;;;5009670;28;20076;-76
2021/12/08 10:33:34;;;;;;;13.45;6.65;;;;;;;;;;5008944;28;20393;-76
2021/12/08 10:36:03;;;;;;;;;;;;;;;;;;5010429;28;20037;-76
2021/12/08 10:38:37;;;;;;;14.57;7.88;;;;;;;;;;5009780;28;19910;-75
2021/12/08 10:41:06;;;;;;;32.92;10.93;;;;;;;;;;5009871;28;20107;-76
2021/12/08 10:43:31;;;;;;;9.70;3.47;;;;;;;;;;5005913;28;20036;-76
2021/12/08 10:46:03;;;;;;;9.88;2.92;;;;;;;;;;5009898;28;20029;-76
2021/12/08 10:48:34;;;;;;;3.47;1.63;;;;;;;;;;5009751;28;20076;-76
2021/12/08 10:54:25;;;;;;;11.05;2.25;;;;;;;;;;5009150;28;20032;-75
2021/12/08 10:56:40;;;;;;;5.50;2.22;;;;;;;;;;5008934;28;20036;-76
2021/12/08 10:59:05;;;;;;;9.70;3.70;;;;;;;;;;5007664;28;20037;-75
2021/12/08 11:01:31;;;;;;;7.82;2.05;;;;;;;;;;5009149;28;20037;-76
2021/12/08 11:04:06;;;;;;;7.10;2.00;;;;;;;;;;5009470;28;20033;-77
2021/12/08 11:06:36;;;;;;;11.63;2.08;;;;;;;;;;5009086;28;20097;-77
2021/12/08 11:09:04;;;;;;;9.52;2.50;;;;;;;;;;5008803;28;20033;-75
2021/12/08 11:11:32;;;;;;;9.10;2.97;;;;;;;;;;5003902;28;20080;-75
2021/12/08 11:14:04;;;;;;;9.98;2.53;;;;;;;;;;4989829;28;20040;-76
2021/12/08 11:16:33;;;;;;;4.40;1.90;;;;;;;;;;4989718;28;20050;-76
2021/12/08 11:19:05;;;;;;;5.97;1.60;;;;;;;;;;4997656;28;20048;-76
2021/12/08 11:21:37;;;;;;;7.82;2.50;;;;;;;;;;5011891;28;20479;-75
2021/12/08 11:24:19;;;;;;;10.03;1.50;;;;;;;;;;5013581;28;20032;-75
2021/12/08 11:26:49;;;;;;;12.80;2.20;;;;;;;;;;5013567;28;20307;-75
2021/12/08 11:29:23;;;;;;;7.53;2.15;;;;;;;;;;5013205;28;20112;-75
2021/12/08 11:31:59;;;;;;;8.23;2.60;;;;;;;;;;5013916;28;20427;-75
2021/12/08 11:34:25;;;;;;;5.93;1.52;;;;;;;;;;5012771;28;20037;-75
2021/12/08 11:37:07;;;;;;;8.77;2.10;;;;;;;;;;5013248;28;20036;-75
2021/12/08 11:39:38;;;;;;;6.53;1.60;;;;;;;;;;5003839;28;20029;-75
2021/12/08 11:42:17;;;;;;;5.28;1.20;;;;;;;;;;5013344;28;20025;-75
2021/12/08 11:44:46;;;;;;;3.97;1.00;;;;;;;;;;5013339;28;20037;-75
2021/12/08 11:47:15;;;;;;;9.77;2.70;;;;;;;;;;5012962;28;20060;-75
2021/12/08 11:49:48;;;;;;;7.07;2.40;;;;;;;;;;5012546;28;20038;-75
2021/12/08 11:52:18;;;;;;;;;;;;;;;;;;5013325;28;20061;-75
2021/12/08 11:54:52;;;;;;;11.30;3.75;;;;;;;;;;5011679;28;19916;-75
2021/12/08 11:57:21;;;;;;;7.53;3.42;;;;;;;;;;4993329;28;20030;-75
2021/12/08 12:00:22;;;;;;;8.65;1.85;;;;;;;;;;4993442;28;20029;-74
2021/12/08 12:02:59;;;;;;;9.23;2.20;;;;;;;;;;5006814;28;20120;-75
2021/12/08 12:05:27;;;;;;;8.93;3.28;;;;;;;;;;5012929;28;20026;-75
2021/12/08 12:07:53;;;;;;;6.00;1.25;;;;;;;;;;4996016;28;20357;-75
2021/12/08 12:10:21;;;;;;;10.35;2.20;;;;;;;;;;5007392;28;20022;-75
2021/12/08 12:12:48;;;;;;;7.28;1.88;;;;;;;;;;5008484;28;20041;-72
2021/12/08 12:15:17;;;;;;;6.32;1.80;;;;;;;;;;5008137;28;20030;-74
2021/12/08 12:17:44;;;;;;;6.75;1.63;;;;;;;;;;5008931;28;20087;-74
2021/12/08 12:20:24;;;;;;;5.68;1.30;;;;;;;;;;5007501;28;20357;-76
2021/12/08 12:23:22;;;;;;;11.18;1.30;;;;;;;;;;4993326;28;20076;-75
2021/12/08 12:26:03;;;;;;;7.68;2.25;;;;;;;;;;4996408;28;20037;-74
2021/12/08 12:29:06;;;;;;;2.25;1.15;;;;;;;;;;5007818;28;20030;-75
2021/12/08 12:31:49;;;;;;;7.82;1.60;;;;;;;;;;5005738;28;20032;-75
2021/12/08 12:34:25;;;;;;;5.57;1.48;;;;;;;;;;5007303;28;20494;-75
2021/12/08 12:36:51;;;;;;;4.65;1.33;;;;;;;;;;5008503;28;20100;-75
2021/12/08 12:39:23;;;;;;;3.28;1.27;;;;;;;;;;5008044;28;20495;-75
2021/12/08 12:42:12;;;;;;;5.40;1.80;;;;;;;;;;5007995;28;20327;-76
2021/12/08 12:44:40;;;;;;;6.53;1.63;;;;;;;;;;5008620;28;20344;-75
2021/12/08 12:47:09;;;;;;;5.38;1.55;;;;;;;;;;5007659;28;20029;-75
2021/12/08 12:49:41;;;;;;;6.88;1.60;;;;;;;;;;5007690;28;20022;-75
2021/12/08 12:52:09;;;;;;;8.85;1.67;;;;;;;;;;5006788;28;20025;-74
2021/12/08 12:54:37;;;;;;;8.50;1.55;;;;;;;;;;5007630;28;20443;-73
2021/12/08 12:57:06;;;;;;;9.55;2.38;;;;;;;;;;5008076;28;20025;-75
2021/12/08 12:59:53;;;;;;;6.55;1.83;;;;;;;;;;5006381;28;20026;-75
2021/12/08 13:02:26;;;;;;;7.05;3.10;;;;;;;;;;5007943;28;20352;-75
2021/12/08 13:05:08;;;;;;;5.78;1.30;;;;;;;;;;5007352;28;20442;-74
2021/12/08 13:07:39;;;;;;;9.55;1.77;;;;;;;;;;5008014;28;20026;-75
2021/12/08 13:10:13;;;;;;;7.97;1.60;;;;;;;;;;5007477;28;20271;-74
2021/12/08 13:12:42;;;;;;;4.53;1.35;;;;;;;;;;5004274;28;20118;-75
2021/12/08 13:15:24;;;;;;;4.93;1.50;;;;;;;;;;4988951;28;20038;-75
2021/12/08 13:18:07;;;;;;;8.35;2.88;;;;;;;;;;4996868;28;20573;-75
2021/12/08 13:20:37;;;;;;;13.20;3.97;;;;;;;;;;5007672;28;20052;-74
2021/12/08 13:23:06;;;;;;;7.13;1.70;;;;;;;;;;5007134;28;20112;-75
2021/12/08 13:25:48;;;;;;;12.55;5.68;;;;;;;;;;5007667;28;20028;-74
2021/12/08 13:28:28;;;;;;;13.10;4.82;;;;;;;;;;4991310;28;20048;-74
2021/12/08 13:31:19;;;;;;;7.65;2.88;;;;;;;;;;4998460;28;20030;-74
2021/12/08 13:33:52;;;;;;;11.52;3.70;;;;;;;;;;5007705;28;20033;-73
2021/12/08 13:36:20;;;;;;;38.83;15.65;;;;;;;;;;5006879;28;20026;-75
2021/12/08 13:39:05;;;;;;;32.20;15.10;;;;;;;;;;5006825;28;20687;-75
2021/12/08 13:41:33;;;;;;;13.10;5.75;;;;;;;;;;5005599;28;20041;-75
2021/12/08 13:44:02;;;;;;;5.25;1.83;;;;;;;;;;4995475;28;20022;-73
2021/12/08 13:46:36;;;;;;;4.18;1.50;;;;;;;;;;5000486;28;20117;-75
2021/12/08 13:49:26;;;;;;;4.63;1.98;;;;;;;;;;5007186;28;20073;-75
2021/12/08 13:52:07;;;;;;;13.02;5.47;;;;;;;;;;5010901;28;20115;-75
2021/12/08 13:54:37;;;;;;;6.50;1.60;;;;;;;;;;5009615;28;20383;-76
2021/12/08 13:57:24;;;;;;;6.68;1.55;;;;;;;;;;5009940;28;20025;-75
2021/12/08 14:00:18;;;;;;;7.15;1.42;;;;;;;;;;5005219;28;20041;-74
2021/12/08 14:02:47;;;;;;;7.70;1.70;;;;;;;;;;5006892;28;20026;-76
2021/12/08 14:05:16;;;;;;;7.88;2.15;;;;;;;;;;5006707;28;20045;-75
2021/12/08 14:07:47;;;;;;;9.18;1.88;;;;;;;;;;5006160;28;20403;-74
2021/12/08 14:10:15;;;;;;;7.20;2.00;;;;;;;;;;5006279;28;20025;-75
2021/12/08 14:12:52;;;;;;;6.15;1.38;;;;;;;;;;5006407;28;20030;-75
2021/12/08 14:15:32;;;;;;;5.47;1.45;;;;;;;;;;4996424;28;20391;-75
2021/12/08 14:18:23;;;;;;;8.60;2.22;;;;;;;;;;5005783;28;20026;-74
2021/12/08 14:20:58;;;;;;;4.65;1.80;;;;;;;;;;5003169;28;20064;-75
2021/12/08 14:23:27;;;;;;;10.20;4.35;;;;;;;;;;5006366;28;20029;-75
2021/12/08 14:26:05;;;;;;;9.02;3.60;;;;;;;;;;5006503;28;20113;-75
2021/12/08 14:28:43;;;;;;;18.48;7.07;;;;;;;;;;5006027;28;20532;-75
2021/12/08 14:31:35;;;;;;;10.52;3.50;;;;;;;;;;4998715;28;20029;-75
2021/12/08 14:34:11;;;;;;;8.85;3.15;;;;;;;;;;4981971;28;20045;-76
2021/12/08 14:36:51;;;;;;;6.55;2.28;;;;;;;;;;5005160;28;20026;-75
2021/12/08 14:39:26;;;;;;;5.97;1.83;;;;;;;;;;5006238;28;20084;-75
2021/12/08 14:41:54;;;;;;;9.73;3.67;;;;;;;;;;5005924;28;20033;-75
2021/12/08 14:44:27;;;;;;;3.35;0.98;;;;;;;;;;5005456;28;20643;-74
2021/12/08 14:46:59;;;;;;;5.85;1.10;;;;;;;;;;4987802;28;20025;-75
2021/12/08 14:49:29;;;;;;;2.83;1.20;;;;;;;;;;4991962;28;20137;-75
2021/12/08 14:51:57;;;;;;;3.20;1.17;;;;;;;;;;5009321;28;20036;-75
2021/12/08 14:54:27;;;;;;;8.38;1.85;;;;;;;;;;5006279;28;20037;-75
2021/12/08 14:57:08;;;;;;;4.97;1.75;;;;;;;;;;5005132;28;20053;-75
2021/12/08 14:59:38;;;;;;;5.07;2.42;;;;;;;;;;5005564;28;20026;-75
2021/12/08 15:02:04;;;;;;;5.32;2.90;;;;;;;;;;5005657;28;20337;-75
2021/12/08 15:04:30;;;;;;;14.43;5.93;;;;;;;;;;5005987;28;20022;-73
2021/12/08 15:07:01;;;;;;;18.65;4.78;;;;;;;;;;5006471;28;20165;-73
2021/12/08 15:09:29;;;;;;;10.80;5.57;;;;;;;;;;5005820;28;20037;-73
2021/12/08 15:11:59;;;;;;;5.93;2.60;;;;;;;;;;5004661;28;20498;-73
2021/12/08 15:14:26;;;;;;;12.73;3.95;;;;;;;;;;5004970;28;20029;-73
2021/12/08 15:16:56;;;;;;;7.47;2.00;;;;;;;;;;5008351;28;20124;-74
2021/12/08 15:19:23;;;;;;;9.30;1.50;;;;;;;;;;5008426;28;20033;-73
2021/12/08 15:21:52;;;;;;;14.32;6.00;;;;;;;;;;5008562;28;20527;-73
2021/12/08 15:24:20;;;;;;;13.07;5.50;;;;;;;;;;5009193;28;20041;-73
2021/12/08 15:26:46;;;;;;;9.43;2.90;;;;;;;;;;5009403;28;20021;-73
2021/12/08 15:29:31;;;;;;;9.63;2.25;;;;;;;;;;4993002;28;20491;-73
2021/12/08 15:31:58;;;;;;;11.43;3.35;;;;;;;;;;4989643;28;20034;-73
2021/12/08 15:34:35;;;;;;;8.15;3.10;;;;;;;;;;4989744;28;20041;-73
2021/12/08 15:37:07;;;;;;;7.93;2.97;;;;;;;;;;4989886;28;20081;-73
2021/12/08 15:39:35;;;;;;;12.30;4.25;;;;;;;;;;4989411;28;20113;-73
2021/12/08 15:42:02;;;;;;;13.60;4.05;;;;;;;;;;4989753;28;20440;-73